createdAt,value
2019-05-01T00:01:26.740Z,5.58
2019-05-01T00:04:15.086Z,5.12
2019-05-01T00:06:49.147Z,6.35
2019-05-01T00:09:19.217Z,7.33
2019-05-01T00:11:49.034Z,8.08
2019-05-01T00:14:19.714Z,5.95
2019-05-01T00:16:49.982Z,6.53
2019-05-01T00:19:19.746Z,5.40
2019-05-01T00:21:49.633Z,6.22
2019-05-01T00:24:19.700Z,6.40
2019-05-01T00:26:49.974Z,6.62
2019-05-01T00:29:20.937Z,6.83
2019-05-01T00:31:51.067Z,6.28
2019-05-01T00:34:20.943Z,5.47
2019-05-01T00:36:50.896Z,4.45
2019-05-01T00:39:21.166Z,7.10
2019-05-01T00:41:51.492Z,5.10
2019-05-01T00:44:21.952Z,6.67
2019-05-01T00:46:53.112Z,8.05
2019-05-01T00:49:23.490Z,6.15
2019-05-01T00:51:53.612Z,6.70
2019-05-01T00:54:23.659Z,5.87
2019-05-01T00:57:00.289Z,5.47
2019-05-01T00:59:41.257Z,4.33
2019-05-01T01:02:34.663Z,4.55
2019-05-01T01:05:08.107Z,8.15
2019-05-01T01:07:44.261Z,5.92
2019-05-01T01:10:15.033Z,7.53
2019-05-01T01:12:45.233Z,8.48
2019-05-01T01:15:15.178Z,5.60
2019-05-01T01:17:45.060Z,5.78
2019-05-01T01:20:14.752Z,9.30
2019-05-01T01:22:44.649Z,6.05
2019-05-01T01:25:14.627Z,7.28
2019-05-01T01:27:44.357Z,4.72
2019-05-01T01:30:14.441Z,7.15
2019-05-01T01:32:44.684Z,6.83
2019-05-01T01:35:14.636Z,7.42
2019-05-01T01:37:44.493Z,6.90
2019-05-01T01:40:14.362Z,7.17
2019-05-01T01:42:45.960Z,5.62
2019-05-01T01:45:41.054Z,6.22
2019-05-01T01:48:17.334Z,5.17
2019-05-01T01:50:47.873Z,5.28
2019-05-01T01:53:19.061Z,5.75
2019-05-01T01:55:49.250Z,5.22
2019-05-01T01:58:19.651Z,7.25
2019-05-01T02:01:09.739Z,6.87
2019-05-01T02:03:42.000Z,5.97
2019-05-01T02:06:12.263Z,7.37
2019-05-01T02:08:42.167Z,6.80
2019-05-01T02:11:12.376Z,5.62
2019-05-01T02:13:42.391Z,6.08
2019-05-01T02:16:12.621Z,6.65
2019-05-01T02:18:42.745Z,5.83
2019-05-01T02:21:12.637Z,7.70
2019-05-01T02:23:43.072Z,6.15
2019-05-01T02:26:14.942Z,7.55
2019-05-01T02:28:51.389Z,5.20
2019-05-01T02:31:28.265Z,7.10
2019-05-01T02:33:58.707Z,8.25
2019-05-01T02:36:28.788Z,7.12
2019-05-01T02:38:59.381Z,11.33
2019-05-01T02:41:34.523Z,6.45
2019-05-01T02:44:20.523Z,7.53
2019-05-01T02:46:51.473Z,6.10
2019-05-01T02:49:35.140Z,6.70
2019-05-01T02:52:05.191Z,7.30
2019-05-01T02:54:36.062Z,5.92
2019-05-01T02:57:10.996Z,9.50
2019-05-01T02:59:41.533Z,6.28
2019-05-01T03:02:11.416Z,8.48
2019-05-01T03:04:41.285Z,6.90
2019-05-01T03:07:11.547Z,5.70
2019-05-01T03:09:41.768Z,9.20
2019-05-01T03:12:11.657Z,8.15
2019-05-01T03:14:43.982Z,6.08
2019-05-01T03:17:31.691Z,9.00
2019-05-01T03:23:07.754Z,6.53
2019-05-01T03:25:37.972Z,7.30
2019-05-01T03:28:09.143Z,6.42
2019-05-01T03:30:38.943Z,6.80
2019-05-01T03:33:08.955Z,7.08
2019-05-01T03:35:39.101Z,7.65
2019-05-01T03:38:09.388Z,7.65
2019-05-01T03:40:39.629Z,8.20
2019-05-01T03:43:09.847Z,7.87
2019-05-01T03:45:40.216Z,7.47
2019-05-01T03:48:10.694Z,9.88
2019-05-01T03:50:40.578Z,6.72
2019-05-01T03:53:10.638Z,7.17
2019-05-01T03:55:40.419Z,7.87
2019-05-01T03:58:10.198Z,7.53
2019-05-01T04:01:04.330Z,7.30
2019-05-01T04:03:42.207Z,9.15
2019-05-01T04:08:40.845Z,9.60
2019-05-01T04:11:11.338Z,8.20
2019-05-01T04:13:41.575Z,7.50
2019-05-01T04:16:11.589Z,7.78
2019-05-01T04:18:41.821Z,9.13
2019-05-01T04:21:11.649Z,6.97
2019-05-01T04:23:43.708Z,6.75
2019-05-01T04:26:13.851Z,9.53
2019-05-01T04:29:04.918Z,8.20
2019-05-01T04:31:53.335Z,9.28
2019-05-01T04:34:30.037Z,7.83
2019-05-01T04:37:02.215Z,7.95
2019-05-01T04:39:32.360Z,7.75
2019-05-01T04:42:03.923Z,8.35
2019-05-01T04:44:36.273Z,11.30
2019-05-01T04:47:06.587Z,8.10
2019-05-01T04:49:37.132Z,8.45
2019-05-01T04:52:06.955Z,7.62
2019-05-01T04:54:36.836Z,7.62
2019-05-01T04:57:06.659Z,10.30
2019-05-01T04:59:36.477Z,8.53
2019-05-01T05:02:07.913Z,10.18
2019-05-01T05:04:38.016Z,6.97
2019-05-01T05:07:08.584Z,9.08
2019-05-01T05:09:43.528Z,6.85
2019-05-01T05:12:19.586Z,6.67
2019-05-01T05:14:54.815Z,8.18
2019-05-01T05:17:24.646Z,6.65
2019-05-01T05:19:54.403Z,8.40
2019-05-01T05:22:24.274Z,5.53
2019-05-01T05:24:54.334Z,7.97
2019-05-01T05:27:24.776Z,8.65
2019-05-01T05:29:56.971Z,7.95
2019-05-01T05:32:28.128Z,8.13
2019-05-01T05:34:58.121Z,6.65
2019-05-01T05:37:32.602Z,8.33
2019-05-01T05:40:02.467Z,6.92
2019-05-01T05:42:32.383Z,10.30
2019-05-01T05:45:03.464Z,9.13
2019-05-01T05:47:33.838Z,6.45
2019-05-01T05:50:04.468Z,7.72
2019-05-01T05:52:46.198Z,7.42
2019-05-01T05:55:35.484Z,9.50
2019-05-01T05:58:14.498Z,7.42
2019-05-01T06:01:04.710Z,7.72
2019-05-01T06:03:52.518Z,9.50
2019-05-01T06:06:30.542Z,8.25
2019-05-01T06:09:01.058Z,6.58
2019-05-01T06:11:43.459Z,8.08
2019-05-01T06:14:32.579Z,8.63
2019-05-01T06:17:28.663Z,8.68
2019-05-01T06:20:25.857Z,6.25
2019-05-01T06:23:15.788Z,8.18
2019-05-01T06:25:44.448Z,8.68
2019-05-01T06:28:14.267Z,8.83
2019-05-01T06:30:47.046Z,7.30
2019-05-01T06:33:15.654Z,10.38
2019-05-01T06:35:45.903Z,7.85
2019-05-01T06:38:16.954Z,9.13
2019-05-01T06:40:53.107Z,10.63
2019-05-01T06:43:39.817Z,9.68
2019-05-01T06:46:38.048Z,11.38
2019-05-01T06:49:19.328Z,10.98
2019-05-01T06:51:53.369Z,8.80
2019-05-01T06:54:23.951Z,11.03
2019-05-01T06:56:54.167Z,11.10
2019-05-01T06:59:26.188Z,11.00
2019-05-01T07:01:58.312Z,10.35
2019-05-01T07:04:32.531Z,12.33
2019-05-01T07:07:01.924Z,11.08
2019-05-01T07:09:31.965Z,11.90
2019-05-01T07:12:02.129Z,14.13
2019-05-01T07:14:32.210Z,12.18
2019-05-01T07:17:03.701Z,12.82
2019-05-01T07:19:51.399Z,13.20
2019-05-01T07:24:50.605Z,13.28
2019-05-01T07:27:23.637Z,13.65
2019-05-01T07:29:55.253Z,16.23
2019-05-01T07:32:25.683Z,17.77
2019-05-01T07:34:56.888Z,16.05
2019-05-01T07:37:27.787Z,20.23
2019-05-01T07:39:59.132Z,17.70
2019-05-01T07:42:31.289Z,18.55
2019-05-01T07:45:19.499Z,21.40
2019-05-01T07:47:49.586Z,20.85
2019-05-01T07:50:19.468Z,24.82
2019-05-01T07:52:52.198Z,24.35
2019-05-01T07:55:36.012Z,21.30
2019-05-01T07:58:10.501Z,21.75
2019-05-01T08:00:56.090Z,17.92
2019-05-01T08:03:25.837Z,21.15
2019-05-01T08:05:55.667Z,31.12
2019-05-01T08:08:25.588Z,29.82
2019-05-01T08:10:59.931Z,28.12
2019-05-01T08:13:30.589Z,36.55
2019-05-01T08:16:02.005Z,29.10
2019-05-01T08:18:39.435Z,37.58
2019-05-01T08:21:31.161Z,32.23
2019-05-01T08:24:01.355Z,32.93
2019-05-01T08:26:31.650Z,31.93
2019-05-01T08:29:20.484Z,33.33
2019-05-01T08:32:09.413Z,30.55
2019-05-01T08:34:48.844Z,32.73
2019-05-01T08:37:11.687Z,31.15
2019-05-01T08:39:44.291Z,36.88
2019-05-01T08:42:13.042Z,35.20
2019-05-01T08:45:16.968Z,33.33
2019-05-01T08:47:51.027Z,33.08
2019-05-01T08:50:24.690Z,34.83
2019-05-01T08:52:53.785Z,31.93
2019-05-01T08:55:23.716Z,36.00
2019-05-01T08:57:55.805Z,35.85
2019-05-01T09:00:26.222Z,35.23
2019-05-01T09:03:07.790Z,30.65
2019-05-01T09:05:30.346Z,37.78
2019-05-01T09:08:02.410Z,34.60
2019-05-01T09:10:33.159Z,32.90
2019-05-01T09:13:03.459Z,31.20
2019-05-01T09:15:34.093Z,30.50
2019-05-01T09:18:04.458Z,39.55
2019-05-01T09:20:36.036Z,34.70
2019-05-01T09:23:09.404Z,36.58
2019-05-01T09:25:48.566Z,33.60
2019-05-01T09:28:25.399Z,31.37
2019-05-01T09:31:02.266Z,32.37
2019-05-01T09:33:30.857Z,33.88
2019-05-01T09:36:02.398Z,33.23
2019-05-01T09:38:33.017Z,29.05
2019-05-01T09:41:03.635Z,30.68
2019-05-01T09:43:35.664Z,28.45
2019-05-01T09:46:05.353Z,28.98
2019-05-01T09:48:35.238Z,30.57
2019-05-01T09:51:31.136Z,33.63
2019-05-01T09:54:10.967Z,30.57
2019-05-01T09:56:41.735Z,30.90
2019-05-01T09:59:12.645Z,27.05
2019-05-01T10:01:43.940Z,32.10
2019-05-01T10:04:14.250Z,27.20
2019-05-01T10:06:47.734Z,27.77
2019-05-01T10:09:16.793Z,28.52
2019-05-01T10:11:48.031Z,28.65
2019-05-01T10:14:18.410Z,30.12
2019-05-01T10:16:48.176Z,33.08
2019-05-01T10:19:18.225Z,27.55
2019-05-01T10:21:48.003Z,28.62
2019-05-01T10:24:18.270Z,32.85
2019-05-01T10:26:50.432Z,25.20
2019-05-01T10:29:39.494Z,30.43
2019-05-01T10:32:34.817Z,29.87
2019-05-01T10:35:22.973Z,31.30
2019-05-01T10:37:53.065Z,26.33
2019-05-01T10:40:26.960Z,26.65
2019-05-01T10:42:55.374Z,27.85
2019-05-01T10:45:25.229Z,25.15
2019-05-01T10:47:55.212Z,28.20
2019-05-01T10:50:25.580Z,22.30
2019-05-01T10:52:55.474Z,22.87
2019-05-01T10:55:25.332Z,25.27
2019-05-01T10:57:55.302Z,25.08
2019-05-01T11:00:25.502Z,24.92
2019-05-01T11:02:55.376Z,22.42
2019-05-01T11:05:25.330Z,23.92
2019-05-01T11:08:33.694Z,20.92
2019-05-01T11:11:03.597Z,23.50
2019-05-01T11:13:33.685Z,23.32
2019-05-01T11:16:03.532Z,21.62
2019-05-01T11:18:33.997Z,25.37
2019-05-01T11:21:04.198Z,22.48
2019-05-01T11:23:33.991Z,20.95
2019-05-01T11:26:03.790Z,22.35
2019-05-01T11:28:34.776Z,21.30
2019-05-01T11:31:05.334Z,23.05
2019-05-01T11:33:57.567Z,23.05
2019-05-01T11:36:58.304Z,25.85
2019-05-01T11:39:36.054Z,24.02
2019-05-01T11:42:06.817Z,31.42
2019-05-01T11:44:36.990Z,26.20
2019-05-01T11:47:06.925Z,24.27
2019-05-01T11:49:37.016Z,26.00
2019-05-01T11:52:07.014Z,25.72
2019-05-01T11:54:37.430Z,21.87
2019-05-01T11:57:07.957Z,25.00
2019-05-01T11:59:38.511Z,27.02
2019-05-01T12:02:08.397Z,22.98
2019-05-01T12:04:38.329Z,27.17
2019-05-01T12:07:09.775Z,27.50
2019-05-01T12:09:39.987Z,25.08
2019-05-01T12:12:12.505Z,29.15
2019-05-01T12:14:42.805Z,26.97
2019-05-01T12:17:24.145Z,25.23
2019-05-01T12:19:54.113Z,25.72
2019-05-01T12:22:23.853Z,28.15
2019-05-01T12:24:53.716Z,25.60
2019-05-01T12:27:23.905Z,28.40
2019-05-01T12:29:55.260Z,22.62
2019-05-01T12:32:25.310Z,23.77
2019-05-01T12:34:55.421Z,24.95
2019-05-01T12:37:33.748Z,23.70
2019-05-01T12:40:03.785Z,25.08
2019-05-01T12:42:35.641Z,23.30
2019-05-01T12:45:08.630Z,24.87
2019-05-01T12:47:59.532Z,21.57
2019-05-01T12:50:29.417Z,21.00
2019-05-01T12:53:18.701Z,22.30
2019-05-01T12:56:16.774Z,20.12
2019-05-01T12:58:47.827Z,19.30
2019-05-01T13:01:18.029Z,18.15
2019-05-01T13:03:48.001Z,21.65
2019-05-01T13:06:17.960Z,22.87
2019-05-01T13:08:48.112Z,18.73
2019-05-01T13:11:18.249Z,15.63
2019-05-01T13:13:48.195Z,15.93
2019-05-01T13:16:17.980Z,15.23
2019-05-01T13:18:47.952Z,16.52
2019-05-01T13:21:17.945Z,16.73
2019-05-01T13:23:47.852Z,18.70
2019-05-01T13:26:43.202Z,22.80
2019-05-01T13:29:32.567Z,17.67
2019-05-01T13:32:15.513Z,18.15
2019-05-01T13:34:45.916Z,16.42
2019-05-01T13:37:16.548Z,15.65
2019-05-01T13:39:46.551Z,16.73
2019-05-01T13:42:16.644Z,14.47
2019-05-01T13:44:46.682Z,18.00
2019-05-01T13:47:17.214Z,18.70
2019-05-01T13:49:47.095Z,18.27
2019-05-01T13:52:17.043Z,16.67
2019-05-01T13:54:46.913Z,15.90
2019-05-01T13:57:17.032Z,16.10
2019-05-01T13:59:47.422Z,16.62
2019-05-01T14:02:17.640Z,14.90
2019-05-01T14:04:49.102Z,15.10
2019-05-01T14:07:20.471Z,14.55
2019-05-01T14:09:50.438Z,13.55
2019-05-01T14:12:20.374Z,12.15
2019-05-01T14:14:51.029Z,11.35
2019-05-01T14:17:21.300Z,13.28
2019-05-01T14:20:13.004Z,12.90
2019-05-01T14:23:02.342Z,14.03
2019-05-01T14:26:10.051Z,12.35
2019-05-01T14:28:39.771Z,14.53
2019-05-01T14:31:09.994Z,12.18
2019-05-01T14:33:40.227Z,10.88
2019-05-01T14:36:10.176Z,12.80
2019-05-01T14:38:40.387Z,12.47
2019-05-01T14:41:10.578Z,12.25
2019-05-01T14:43:45.272Z,12.50
2019-05-01T14:46:15.125Z,9.83
2019-05-01T14:48:44.975Z,12.07
2019-05-01T14:51:16.194Z,9.48
2019-05-01T14:53:46.203Z,8.50
2019-05-01T14:56:16.035Z,11.40
2019-05-01T14:58:45.934Z,11.30
2019-05-01T15:01:16.028Z,11.88
2019-05-01T15:03:46.151Z,15.43
2019-05-01T15:06:15.984Z,10.90
2019-05-01T15:08:45.836Z,10.15
2019-05-01T15:11:16.058Z,10.60
2019-05-01T15:14:01.950Z,12.03
2019-05-01T15:16:54.000Z,12.18
2019-05-01T15:19:26.224Z,14.20
2019-05-01T15:21:56.553Z,10.85
2019-05-01T15:24:28.728Z,12.53
2019-05-01T15:26:58.632Z,12.50
2019-05-01T15:29:29.656Z,11.60
2019-05-01T15:31:59.690Z,13.62
2019-05-01T15:34:30.068Z,11.08
2019-05-01T15:37:00.035Z,15.10
2019-05-01T15:39:34.901Z,11.25
2019-05-01T15:42:22.729Z,12.75
2019-05-01T15:44:52.965Z,12.13
2019-05-01T15:47:22.883Z,12.30
2019-05-01T15:49:53.305Z,16.07
2019-05-01T15:52:23.355Z,10.28
2019-05-01T15:55:13.575Z,11.53
2019-05-01T15:57:44.977Z,13.88
2019-05-01T16:00:17.515Z,11.85
2019-05-01T16:02:47.363Z,10.93
2019-05-01T16:05:17.556Z,11.48
2019-05-01T16:07:47.546Z,13.15
2019-05-01T16:10:19.759Z,11.75
2019-05-01T16:13:00.445Z,13.45
2019-05-01T16:15:32.197Z,9.93
2019-05-01T16:18:03.295Z,13.93
2019-05-01T16:20:33.585Z,12.15
2019-05-01T16:23:04.307Z,12.95
2019-05-01T16:25:34.184Z,12.33
2019-05-01T16:28:04.327Z,12.35
2019-05-01T16:30:35.427Z,10.63
2019-05-01T16:33:05.934Z,9.35
2019-05-01T16:35:37.139Z,8.65
2019-05-01T16:38:22.394Z,8.58
2019-05-01T16:41:12.730Z,8.33
2019-05-01T16:43:42.875Z,10.75
2019-05-01T16:46:13.221Z,10.93
2019-05-01T16:48:43.552Z,10.30
2019-05-01T16:51:13.492Z,10.38
2019-05-01T16:53:43.783Z,10.60
2019-05-01T16:56:14.481Z,9.80
2019-05-01T16:58:44.624Z,12.23
2019-05-01T17:01:36.535Z,12.13
2019-05-01T17:04:11.889Z,10.20
2019-05-01T17:06:50.292Z,12.30
2019-05-01T17:09:39.774Z,9.93
2019-05-01T17:12:11.011Z,9.93
2019-05-01T17:14:41.222Z,9.60
2019-05-01T17:17:15.747Z,10.28
2019-05-01T17:19:45.772Z,10.75
2019-05-01T17:22:16.227Z,9.88
2019-05-01T17:24:47.939Z,11.68
2019-05-01T17:27:19.551Z,8.83
2019-05-01T17:29:49.639Z,11.70
2019-05-01T17:32:20.150Z,12.37
2019-05-01T17:34:50.181Z,10.10
2019-05-01T17:37:20.914Z,13.22
2019-05-01T17:39:51.218Z,11.15
2019-05-01T17:42:21.949Z,9.80
2019-05-01T17:44:56.000Z,11.38
2019-05-01T17:47:26.803Z,12.25
2019-05-01T17:49:55.670Z,9.90
2019-05-01T17:52:25.930Z,11.78
2019-05-01T17:54:56.234Z,11.48
2019-05-01T17:57:26.284Z,8.95
2019-05-01T17:59:58.555Z,9.28
2019-05-01T18:02:53.530Z,10.45
2019-05-01T18:05:42.477Z,14.70
2019-05-01T18:08:12.517Z,14.10
2019-05-01T18:10:42.552Z,11.48
2019-05-01T18:13:13.558Z,11.03
2019-05-01T18:15:43.582Z,13.03
2019-05-01T18:18:15.201Z,12.82
2019-05-01T18:20:45.802Z,12.50
2019-05-01T18:23:47.536Z,14.23
2019-05-01T18:26:26.361Z,9.60
2019-05-01T18:29:06.747Z,12.30
2019-05-01T18:31:37.632Z,9.08
2019-05-01T18:34:07.590Z,13.55
2019-05-01T18:36:42.435Z,12.25
2019-05-01T18:39:21.468Z,12.75
2019-05-01T18:41:54.162Z,14.83
2019-05-01T18:44:24.168Z,13.43
2019-05-01T18:46:54.435Z,11.97
2019-05-01T18:49:24.537Z,16.62
2019-05-01T18:51:54.533Z,11.55
2019-05-01T18:54:24.823Z,15.70
2019-05-01T18:56:55.043Z,14.30
2019-05-01T18:59:24.968Z,13.58
2019-05-01T19:01:55.255Z,13.95
2019-05-01T19:04:25.854Z,11.65
2019-05-01T19:06:55.852Z,13.65
2019-05-01T19:09:30.338Z,15.70
2019-05-01T19:11:58.694Z,16.45
2019-05-01T19:14:30.830Z,16.42
2019-05-01T19:17:01.362Z,14.78
2019-05-01T19:19:31.511Z,14.75
2019-05-01T19:22:03.036Z,15.63
2019-05-01T19:24:38.039Z,16.87
2019-05-01T19:27:05.330Z,14.53
2019-05-01T19:29:35.493Z,16.20
2019-05-01T19:32:06.194Z,15.20
2019-05-01T19:34:36.494Z,16.93
2019-05-01T19:37:06.834Z,20.00
2019-05-01T19:39:43.713Z,20.35
2019-05-01T19:42:09.423Z,21.42
2019-05-01T19:44:40.035Z,20.97
2019-05-01T19:47:10.213Z,20.65
2019-05-01T19:49:40.256Z,19.57
2019-05-01T19:52:10.306Z,21.17
2019-05-01T19:54:40.811Z,20.17
2019-05-01T19:57:12.993Z,19.05
2019-05-01T19:59:44.787Z,20.65
2019-05-01T20:02:17.231Z,18.52
2019-05-01T20:04:50.459Z,21.33
2019-05-01T20:07:22.190Z,21.75
2019-05-01T20:09:57.078Z,20.88
2019-05-01T20:12:24.778Z,18.57
2019-05-01T20:14:55.786Z,17.62
2019-05-01T20:17:26.628Z,17.25
2019-05-01T20:19:57.088Z,18.82
2019-05-01T20:22:27.310Z,18.30
2019-05-01T20:24:57.345Z,20.48
2019-05-01T20:27:27.817Z,19.70
2019-05-01T20:29:57.999Z,20.32
2019-05-01T20:32:28.040Z,18.32
2019-05-01T20:34:59.462Z,17.52
2019-05-01T20:37:29.701Z,18.05
2019-05-01T20:40:10.340Z,17.25
2019-05-01T20:42:32.065Z,18.92
2019-05-01T20:45:05.501Z,19.00
2019-05-01T20:47:35.332Z,21.30
2019-05-01T20:50:06.775Z,16.93
2019-05-01T20:52:36.814Z,20.43
2019-05-01T20:55:08.243Z,23.85
2019-05-01T20:57:40.279Z,18.65
2019-05-01T21:00:11.237Z,19.85
2019-05-01T21:02:44.528Z,21.50
2019-05-01T21:05:27.572Z,19.25
2019-05-01T21:08:15.864Z,20.37
2019-05-01T21:10:53.392Z,19.17
2019-05-01T21:13:25.083Z,20.45
2019-05-01T21:15:56.292Z,23.35
2019-05-01T21:18:27.798Z,22.62
2019-05-01T21:20:58.192Z,21.65
2019-05-01T21:23:28.133Z,20.52
2019-05-01T21:25:58.227Z,24.57
2019-05-01T21:28:28.711Z,20.92
2019-05-01T21:30:59.026Z,22.55
2019-05-01T21:33:29.131Z,20.35
2019-05-01T21:36:06.144Z,20.25
2019-05-01T21:38:32.597Z,20.00
2019-05-01T21:41:02.980Z,18.67
2019-05-01T21:43:36.981Z,20.95
2019-05-01T21:46:05.074Z,20.20
2019-05-01T21:48:34.919Z,22.95
2019-05-01T21:51:07.381Z,19.45
2019-05-01T21:53:37.292Z,20.35
2019-05-01T21:56:08.160Z,24.30
2019-05-01T21:58:38.377Z,20.60
2019-05-01T22:01:08.452Z,26.52
2019-05-01T22:03:38.308Z,20.27
2019-05-01T22:06:11.407Z,24.02
2019-05-01T22:08:41.096Z,21.30
2019-05-01T22:11:11.444Z,18.95
2019-05-01T22:13:41.970Z,24.18
2019-05-01T22:16:18.397Z,22.65
2019-05-01T22:19:03.138Z,22.30
2019-05-01T22:21:55.128Z,20.90
2019-05-01T22:24:59.538Z,21.70
2019-05-01T22:27:44.276Z,20.35
2019-05-01T22:30:42.307Z,20.90
2019-05-01T22:33:11.676Z,23.32
2019-05-01T22:35:47.901Z,19.60
2019-05-01T22:38:17.816Z,20.57
2019-05-01T22:41:06.107Z,21.85
2019-05-01T22:43:28.189Z,21.82
2019-05-01T22:46:01.588Z,23.90
2019-05-01T22:48:30.499Z,25.70
2019-05-01T22:51:06.449Z,22.87
2019-05-01T22:53:36.627Z,24.23
2019-05-01T22:56:06.641Z,23.22
2019-05-01T22:58:37.310Z,24.47
2019-05-01T23:01:07.326Z,21.68
2019-05-01T23:03:48.562Z,21.48
2019-05-01T23:06:18.723Z,24.63
2019-05-01T23:08:49.127Z,24.30
2019-05-01T23:11:20.499Z,21.50
2019-05-01T23:13:51.308Z,24.00
2019-05-01T23:16:23.218Z,23.55
2019-05-01T23:18:53.330Z,24.72
2019-05-01T23:21:23.726Z,22.15
2019-05-01T23:23:56.747Z,23.40
2019-05-01T23:26:25.876Z,25.50
2019-05-01T23:28:56.213Z,25.77
2019-05-01T23:31:26.320Z,21.27
2019-05-01T23:34:00.028Z,23.90
2019-05-01T23:36:30.985Z,23.20
2019-05-01T23:39:02.013Z,26.70
2019-05-01T23:41:45.375Z,24.30
2019-05-01T23:44:06.266Z,25.45
2019-05-01T23:46:36.351Z,23.87
2019-05-01T23:49:06.489Z,27.02
2019-05-01T23:51:36.573Z,25.90
2019-05-01T23:54:06.439Z,25.52
2019-05-01T23:56:36.727Z,24.80
2019-05-01T23:59:06.934Z,26.50
